Gothenburg, NE

6:10 AM CDT on July 04, 2015 (GMT -0500)
KNEGOTHE4 | | Change Station
CLOSE
Current Station
Personal Weather Station
Location: Gothenburg, NE
Elevation: 2572 ft
Nearby Weather Stations

Elev 2572 ft 40.92 °N, 100.17 °W | Updated 42 seconds ago

Clear
Clear
63.9 °F
Feels Like 63.9 °F
N
2.0
Wind Variable Wind from SE
Gusts 2.0 mph

Today
High -- | Low -- °F
--% Chance of Precip.
Yesterday
High -- | Low -- °F
Precip. -- in
6:13 AM 9:15 PM
Waning Gibbous, 93% visible
Pressure 30.00 in
Visibility 7.0 miles
Clouds Clear
Dew Point 59 °F
Humidity 83%
Rainfall 0.00 in
Snow Depth Not available.
UV 0 out of 12
Pollen 4.60 out of 12
Air Quality Not available.
Flu Activity Not available.
METAR KLXN 041055Z AUTO 13004KT 7SM CLR 17/15 A3000 RMK AO2 T01680154

More Conditions Fewer Conditions

Pressure 30.00 in
Visibility 7.0 miles
Clouds Clear
Dew Point 59 °F
Humidity 83%
Rainfall 0.00 in
Snow Depth Not available.
UV 0 out of 12
Pollen 4.60 out of 12
Air Quality Not available.
Flu Activity Not available.
METAR KLXN 041055Z AUTO 13004KT 7SM CLR 17/15 A3000 RMK AO2 T01680154

More Conditions Fewer Conditions

10-Day Weather Forecast

×

Almanac

Astronomy

Jul. 04, 2015 Rise Set
Actual Time
Civil Twilight
Nautical Twilight
Astronomical Twilight
Moon
Length of Visible Light
Length of Day
Tomorrow will be .
, % of the Moon is Illuminated

Today's Extremes

State Highs State Lows

Community

WunderPhotos

Upload Photos

1,834,939 photos uploaded!

WunderBlogs® & News

Nearby

Air Quality

  Air Quality AQ Index Pollutant
Not available.

Snow Depth

Station Depth Elevation

Earthquake Activity

City Distance Mag. Time & Date
Minimum magnitude displayed is 2.5.

Coastal Water Temperatures

Place Temperature

Stations

Nearby Weather Stations

Station Location Temp. Windchill Dew Point Humidity Wind Precip. Elev Updated Type